Terminal Aerodrome Forecast
Issued by NWS

Home | Current Version | Previous Version | Text Only | Print | Product List | Glossary On
Versions: 1 2 3 4 5 6 7 8 9 10 11 12 13 14 15 16 17 18 19 20 21 22 23 24 25 26
000
FTAK31 PAFA 031720
TAFAOR
TAF
PAOR 031720Z 0318/0418 31008KT P6SM SCT045 BKN080
     FM032000 31008G15KT 6SM FU VCTS SCT070CB BKN100
     FM040600 31005KT P6SM FEW070 BKN120=

USA.gov is the U.S. government's official web portal to all federal, state and local government web resources and services.